Time;durP1;ratioP1;P1;durP2;ratioP2;P2;SDS_P1;SDS_P2;PMS_P1;PMS_P2;Temp;Humidity;BMP_temperature;BMP_pressure;BME280_temperature;BME280_humidity;BME280_pressure;Samples;Min_cycle;Max_cycle;Signal;HPM_P1;HPM_P2
2022/05/06 00:01:12;;;;;;;32.38;18.65;;;;;;;10.23;91.17;94347.19;4967214;28;20427;-60
2022/05/06 00:03:39;;;;;;;33.10;18.80;;;;;;;10.19;90.94;94347.22;4961659;28;20055;-60
2022/05/06 00:06:06;;;;;;;34.13;18.60;;;;;;;10.17;91.08;94349.56;4953260;28;20462;-61
2022/05/06 00:08:33;;;;;;;36.17;19.85;;;;;;;10.15;91.05;94347.22;4953658;28;20393;-60
2022/05/06 00:11:00;;;;;;;33.17;18.85;;;;;;;9.90;91.12;94341.91;4958847;28;20054;-59
2022/05/06 00:13:27;;;;;;;34.17;19.25;;;;;;;9.98;91.28;94343.44;4972830;28;20046;-60
2022/05/06 00:15:53;;;;;;;34.63;19.57;;;;;;;9.85;91.83;94344.28;4972108;28;20166;-63
2022/05/06 00:18:20;;;;;;;35.20;19.13;;;;;;;9.73;92.07;94346.31;4989010;28;20045;-59
2022/05/06 00:20:48;;;;;;;40.47;21.27;;;;;;;9.79;91.88;94346.66;4974866;28;20053;-59
2022/05/06 00:23:14;;;;;;;37.92;20.65;;;;;;;9.56;93.13;94341.72;4973572;28;20438;-60
2022/05/06 00:25:41;;;;;;;39.15;20.63;;;;;;;9.66;92.81;94346.34;4992093;28;20039;-58
2022/05/06 00:28:08;;;;;;;37.03;20.70;;;;;;;9.39;93.28;94346.06;4991499;28;20046;-61
2022/05/06 00:30:34;;;;;;;41.85;21.85;;;;;;;9.39;93.42;94330.41;4991878;28;20042;-62
2022/05/06 00:33:01;;;;;;;38.90;21.02;;;;;;;9.57;93.20;94335.03;4991591;28;20042;-60
2022/05/06 00:35:28;;;;;;;41.88;22.08;;;;;;;9.38;93.70;94344.53;4974817;28;20046;-60
2022/05/06 00:37:54;;;;;;;40.90;21.85;;;;;;;9.37;94.72;94338.25;4991277;28;20042;-59
2022/05/06 00:40:21;;;;;;;44.60;23.17;;;;;;;9.31;94.84;94339.81;4991615;28;20045;-60
2022/05/06 00:42:50;;;;;;;41.58;21.90;;;;;;;9.33;94.27;94333.97;4991899;28;20382;-62
2022/05/06 00:45:17;;;;;;;40.28;21.20;;;;;;;9.37;94.13;94331.97;4991207;28;20431;-64
2022/05/06 00:47:45;;;;;;;36.80;19.80;;;;;;;9.45;94.00;94328.03;4991734;28;20380;-65
2022/05/06 00:50:12;;;;;;;40.40;21.65;;;;;;;9.48;93.41;94326.47;4990939;28;20061;-61
2022/05/06 00:52:39;;;;;;;35.60;19.70;;;;;;;9.40;93.28;94320.25;4991606;28;20263;-63
2022/05/06 00:55:06;;;;;;;33.25;18.98;;;;;;;9.36;92.63;94320.25;4990913;28;20053;-61
2022/05/06 00:57:33;;;;;;;38.78;21.08;;;;;;;9.14;94.35;94322.28;4991450;28;20054;-59
2022/05/06 01:00:19;;;;;;;36.30;18.85;;;;;;;9.23;94.53;94326.56;4991012;28;20042;-60
2022/05/06 01:02:47;;;;;;;37.38;19.65;;;;;;;9.19;94.59;94327.38;4991396;28;20054;-59
2022/05/06 01:05:15;;;;;;;34.63;19.10;;;;;;;9.30;93.80;94321.06;4990879;28;20038;-60
2022/05/06 01:07:45;;;;;;;33.67;18.25;;;;;;;9.35;92.92;94321.41;4991284;28;20411;-60
2022/05/06 01:10:13;;;;;;;32.00;17.85;;;;;;;9.46;92.71;94326.09;4990658;28;20058;-59
2022/05/06 01:12:40;;;;;;;33.42;18.70;;;;;;;9.41;92.70;94324.53;4984297;28;20046;-60
2022/05/06 01:15:23;;;;;;;30.58;16.90;;;;;;;9.51;91.94;94320.19;4972799;28;20054;-59
2022/05/06 01:17:52;;;;;;;32.30;17.67;;;;;;;9.46;91.81;94321.41;4983683;28;20053;-60
2022/05/06 01:20:21;;;;;;;32.78;18.10;;;;;;;9.36;92.64;94324.97;4989935;28;21632;-63
2022/05/06 01:22:50;;;;;;;35.28;18.63;;;;;;;9.56;91.75;94323.31;4991121;28;20058;-61
2022/05/06 01:25:18;;;;;;;32.67;17.70;;;;;;;9.62;91.52;94322.88;4990702;28;20046;-61
2022/05/06 01:27:52;;;;;;;31.50;17.42;;;;;;;9.65;90.84;94325.59;4991212;28;20049;-63
2022/05/06 01:30:42;;;;;;;32.40;17.50;;;;;;;9.65;91.24;94322.84;4982131;28;20845;-63
2022/05/06 01:33:11;;;;;;;31.60;17.85;;;;;;;9.63;91.24;94329.94;4990318;28;20406;-60
2022/05/06 01:35:46;;;;;;;32.72;17.88;;;;;;;9.65;90.92;94313.88;4990796;28;20046;-62
2022/05/06 01:38:24;;;;;;;32.67;17.80;;;;;;;9.71;90.37;94323.22;4972994;28;20441;-59
2022/05/06 01:40:55;;;;;;;33.03;17.65;;;;;;;9.59;89.91;94327.97;4990801;28;20045;-59
2022/05/06 01:43:24;;;;;;;33.23;18.00;;;;;;;9.65;90.48;94322.09;4989714;28;20166;-60
2022/05/06 01:45:54;;;;;;;32.28;17.65;;;;;;;9.66;89.39;94323.63;4990765;28;20118;-62
2022/05/06 01:48:22;;;;;;;38.75;21.48;;;;;;;9.17;91.48;94326.97;4989921;28;20839;-62
2022/05/06 01:50:49;;;;;;;42.85;22.02;;;;;;;9.09;93.47;94322.69;4990683;28;20072;-60
2022/05/06 01:53:17;;;;;;;45.50;23.08;;;;;;;9.00;94.16;94328.59;4990130;28;20049;-60
2022/05/06 01:55:45;;;;;;;46.97;24.27;;;;;;;9.11;94.07;94331.28;4990767;28;20046;-65
2022/05/06 01:58:11;;;;;;;45.80;23.67;;;;;;;9.12;94.60;94324.66;4990003;28;20046;-59
2022/05/06 02:00:38;;;;;;;46.78;23.80;;;;;;;9.05;94.39;94324.66;4990407;28;20096;-60
2022/05/06 02:03:05;;;;;;;47.15;24.00;;;;;;;9.13;94.15;94325.41;4989932;28;20080;-60
2022/05/06 02:05:32;;;;;;;48.15;24.48;;;;;;;9.01;94.83;94321.16;4990648;28;20042;-60
2022/05/06 02:07:58;;;;;;;49.60;23.70;;;;;;;8.92;94.90;94327.03;4990180;28;20672;-65
2022/05/06 02:10:25;;;;;;;46.83;23.42;;;;;;;8.98;94.47;94332.91;4990134;28;20042;-60
2022/05/06 02:12:52;;;;;;;50.78;24.05;;;;;;;8.84;95.77;94322.00;4990537;28;20038;-59
2022/05/06 02:15:19;;;;;;;51.00;23.80;;;;;;;8.88;95.45;94328.25;4981854;28;20583;-62
2022/05/06 02:17:46;;;;;;;50.20;24.73;;;;;;;8.88;95.47;94326.28;4990509;28;20076;-60
2022/05/06 02:20:13;;;;;;;49.53;24.47;;;;;;;8.83;95.23;94326.66;4972842;28;20098;-64
2022/05/06 02:22:42;;;;;;;49.50;24.35;;;;;;;8.86;95.36;94316.91;4973085;28;20058;-61
2022/05/06 02:25:09;;;;;;;50.53;24.73;;;;;;;8.69;96.76;94324.75;4989506;28;20408;-60
2022/05/06 02:27:37;;;;;;;50.00;24.58;;;;;;;8.70;96.66;94317.31;4990240;28;20495;-62
2022/05/06 02:35:36;;;;;;;51.88;24.35;;;;;;;8.78;96.15;94314.16;4989181;28;20797;-59
2022/05/06 02:38:08;;;;;;;49.05;23.27;;;;;;;8.79;95.89;94315.75;4989379;28;20053;-61
2022/05/06 02:40:36;;;;;;;45.95;22.70;;;;;;;9.00;95.12;94314.13;4973019;28;20517;-61
2022/05/06 02:43:06;;;;;;;46.28;23.05;;;;;;;9.00;94.50;94314.13;4979281;28;20400;-59
2022/05/06 02:45:34;;;;;;;41.30;21.57;;;;;;;8.97;95.52;94309.44;4980662;28;20045;-60
2022/05/06 02:48:01;;;;;;;46.30;23.27;;;;;;;8.72;95.88;94314.97;4972816;28;20101;-60
2022/05/06 02:50:28;;;;;;;48.42;24.40;;;;;;;8.62;95.91;94319.28;4957435;28;20038;-59
2022/05/06 02:52:55;;;;;;;49.95;24.58;;;;;;;8.71;96.55;94310.66;4973746;28;20054;-60
2022/05/06 02:55:23;;;;;;;46.88;22.83;;;;;;;8.72;96.17;94310.28;4974484;28;20051;-60
2022/05/06 02:57:51;;;;;;;48.13;23.60;;;;;;;8.72;96.54;94314.97;4974238;28;20046;-60
2022/05/06 03:00:18;;;;;;;45.38;23.15;;;;;;;8.74;96.80;94307.16;4973330;28;20258;-61
2022/05/06 03:02:45;;;;;;;45.50;23.10;;;;;;;8.85;96.77;94312.59;4974222;28;20492;-60
2022/05/06 03:05:12;;;;;;;45.65;23.25;;;;;;;8.89;95.86;94308.66;4973858;28;20053;-62
2022/05/06 03:07:41;;;;;;;44.90;23.42;;;;;;;8.72;96.18;94313.00;4974072;28;20051;-62
2022/05/06 03:10:09;;;;;;;45.77;22.93;;;;;;;8.80;96.46;94311.03;4973546;28;20073;-60
2022/05/06 03:12:37;;;;;;;49.30;24.10;;;;;;;8.75;97.51;94308.69;4973570;28;20053;-62
2022/05/06 03:15:05;;;;;;;50.45;24.30;;;;;;;8.74;96.59;94315.38;4973548;28;20506;-59
2022/05/06 03:17:32;;;;;;;43.72;21.92;;;;;;;8.84;96.42;94306.34;4983294;28;20053;-59
2022/05/06 03:20:00;;;;;;;45.28;22.83;;;;;;;8.86;96.10;94308.69;4992896;28;20369;-59
2022/05/06 03:22:28;;;;;;;48.27;22.97;;;;;;;8.88;96.19;94307.13;4993357;28;20058;-60
2022/05/06 03:24:54;;;;;;;40.67;20.85;;;;;;;8.97;95.36;94306.69;4992764;28;20527;-60
2022/05/06 03:30:08;;;;;;;46.17;23.33;;;;;;;8.89;95.54;94302.41;4992867;28;20038;-65
2022/05/06 03:32:35;;;;;;;46.53;22.45;;;;;;;8.75;95.70;94297.75;4993206;28;20030;-62
2022/05/06 03:35:03;;;;;;;47.57;22.83;;;;;;;8.55;98.20;94305.59;4975258;28;20054;-61
2022/05/06 03:37:30;;;;;;;46.72;22.08;;;;;;;8.73;97.62;94297.38;4993016;28;20054;-61
2022/05/06 03:39:57;;;;;;;45.85;23.13;;;;;;;8.76;96.91;94296.59;4975034;28;20046;-60
2022/05/06 03:42:25;;;;;;;42.63;22.27;;;;;;;8.81;96.60;94309.84;4966272;28;20049;-59
2022/05/06 03:44:51;;;;;;;43.83;22.02;;;;;;;8.66;96.43;94295.44;4982331;28;20186;-59
2022/05/06 03:47:18;;;;;;;42.27;21.97;;;;;;;8.85;95.97;94298.91;4955131;28;21745;-64
2022/05/06 03:51:20;;;;;;;41.15;21.65;;;;;;;8.89;95.44;94299.69;4973132;28;20504;-60
2022/05/06 03:52:31;;;;;;;41.00;21.38;;;;;;;8.98;95.92;94300.81;4972388;28;20180;-65
2022/05/06 03:54:58;;;;;;;46.47;23.05;;;;;;;8.90;96.13;94301.25;4972640;28;20057;-61
2022/05/06 03:57:25;;;;;;;43.75;22.17;;;;;;;8.92;95.56;94304.38;4973039;28;20042;-59
2022/05/06 03:59:51;;;;;;;45.17;21.40;;;;;;;9.03;96.16;94301.59;4972052;28;20043;-60
2022/05/06 04:02:19;;;;;;;46.72;22.17;;;;;;;9.11;95.84;94309.38;4972240;28;20682;-61
2022/05/06 04:04:47;;;;;;;44.58;21.83;;;;;;;8.86;96.21;94312.19;4973068;28;20136;-60
2022/05/06 04:07:14;;;;;;;45.85;22.95;;;;;;;8.94;95.52;94312.97;4972408;28;20039;-62
2022/05/06 04:09:41;;;;;;;45.55;22.23;;;;;;;8.82;96.02;94313.41;4972658;28;20049;-62
2022/05/06 04:12:09;;;;;;;49.10;23.50;;;;;;;8.65;96.57;94313.00;4971808;28;20046;-59
2022/05/06 04:14:36;;;;;;;47.90;22.50;;;;;;;8.82;95.83;94316.91;4955641;28;20054;-60
2022/05/06 04:17:03;;;;;;;43.55;21.77;;;;;;;8.97;95.53;94317.63;4960752;28;20092;-60
2022/05/06 04:19:30;;;;;;;45.83;22.42;;;;;;;8.97;95.80;94323.13;4992127;28;20061;-60
2022/05/06 04:24:42;;;;;;;47.73;22.57;;;;;;;8.98;95.83;94316.47;4992313;28;20054;-63
2022/05/06 04:27:09;;;;;;;45.13;23.15;;;;;;;8.73;95.88;94317.31;4974282;28;20042;-60
2022/05/06 04:29:35;;;;;;;45.83;22.33;;;;;;;8.79;96.42;94320.41;4974587;28;20054;-59
2022/05/06 04:32:02;;;;;;;47.13;23.40;;;;;;;8.90;96.36;94320.41;4974030;28;20042;-63
2022/05/06 04:34:29;;;;;;;45.28;23.42;;;;;;;8.87;95.34;94321.19;4991717;28;20057;-60
2022/05/06 04:36:56;;;;;;;53.83;24.30;;;;;;;8.83;95.96;94323.94;4991165;28;20046;-63
2022/05/06 04:39:22;;;;;;;46.72;23.88;;;;;;;8.76;96.53;94319.25;4991771;28;20042;-64
2022/05/06 04:41:50;;;;;;;47.50;22.58;;;;;;;9.03;95.98;94318.03;4985109;28;20043;-59
2022/05/06 04:44:17;;;;;;;47.05;22.90;;;;;;;9.10;95.11;94320.75;4956918;28;20403;-60
2022/05/06 04:46:46;;;;;;;44.75;22.13;;;;;;;8.96;95.76;94327.03;4970985;28;20050;-60
2022/05/06 04:49:13;;;;;;;51.53;24.27;;;;;;;8.92;96.89;94323.53;4954850;28;20397;-60
2022/05/06 04:51:39;;;;;;;47.42;23.55;;;;;;;8.80;96.46;94317.28;4955128;28;20055;-61
2022/05/06 04:54:10;;;;;;;43.60;21.83;;;;;;;8.98;95.51;94328.19;4971542;28;20046;-62
2022/05/06 04:56:37;;;;;;;48.85;23.20;;;;;;;8.98;95.15;94328.19;4972003;28;20178;-61
2022/05/06 04:59:03;;;;;;;45.35;22.05;;;;;;;9.17;95.76;94339.88;4971341;28;20078;-61
2022/05/06 05:01:30;;;;;;;46.07;22.60;;;;;;;9.15;96.21;94331.28;4972001;28;20047;-60
2022/05/06 05:03:59;;;;;;;45.58;22.70;;;;;;;9.27;95.14;94339.06;4970279;28;20058;-62
2022/05/06 05:06:33;;;;;;;46.20;22.92;;;;;;;9.03;95.64;94332.47;4971763;28;20085;-60
2022/05/06 05:08:59;;;;;;;43.55;21.50;;;;;;;9.33;94.86;94339.44;4971304;28;20042;-60
2022/05/06 05:11:28;;;;;;;49.40;23.15;;;;;;;9.27;95.05;94335.53;4971151;28;20038;-60
2022/05/06 05:13:55;;;;;;;48.33;23.53;;;;;;;9.19;95.12;94334.78;4971184;28;20121;-63
2022/05/06 05:16:22;;;;;;;52.67;23.08;;;;;;;8.88;95.82;94341.91;4972204;28;20053;-60
2022/05/06 05:18:49;;;;;;;51.33;24.55;;;;;;;9.11;95.21;94342.25;4974092;28;20088;-62
2022/05/06 05:21:16;;;;;;;47.63;23.83;;;;;;;9.18;96.38;94334.00;4990645;28;20042;-60
2022/05/06 05:23:42;;;;;;;48.35;24.20;;;;;;;8.95;95.27;94333.69;4990601;28;20057;-59
2022/05/06 05:26:09;;;;;;;51.50;24.87;;;;;;;8.94;95.36;94329.41;4990116;28;20046;-65
2022/05/06 05:28:36;;;;;;;49.67;26.10;;;;;;;8.68;96.41;94325.16;4990847;28;20048;-62
2022/05/06 05:31:03;;;;;;;51.92;25.15;;;;;;;8.95;97.52;94330.94;4990431;28;20053;-60
2022/05/06 05:33:30;;;;;;;49.10;24.02;;;;;;;9.17;95.05;94331.66;4990806;28;20054;-61
2022/05/06 05:35:56;;;;;;;50.38;24.58;;;;;;;9.18;94.34;94333.25;4990432;28;20356;-59
2022/05/06 05:38:23;;;;;;;45.00;23.73;;;;;;;9.42;94.78;94339.81;4990544;28;20038;-63
2022/05/06 05:40:50;;;;;;;52.25;25.05;;;;;;;8.98;94.95;94338.38;4973139;28;20051;-62
2022/05/06 05:49:02;;;;;;;48.28;23.45;;;;;;;9.53;93.99;94337.00;4957123;28;20060;-61
2022/05/06 05:51:29;;;;;;;47.93;23.93;;;;;;;9.56;92.85;94344.44;4990593;28;20402;-59
2022/05/06 05:53:56;;;;;;;45.50;23.17;;;;;;;9.73;92.69;94334.56;4972736;28;20046;-65
2022/05/06 05:56:23;;;;;;;46.03;22.65;;;;;;;9.65;91.83;94336.56;4990715;28;20043;-61
2022/05/06 05:58:51;;;;;;;46.65;23.08;;;;;;;9.74;91.24;94328.69;4990389;28;20046;-59
2022/05/06 06:01:18;;;;;;;45.65;22.77;;;;;;;9.73;90.91;94335.34;4989429;28;20292;-59
2022/05/06 06:03:45;;;;;;;44.73;22.13;;;;;;;9.81;90.92;94336.09;4990326;28;20057;-61
2022/05/06 06:06:12;;;;;;;44.53;22.08;;;;;;;9.82;90.20;94331.38;4989832;28;20427;-64
2022/05/06 06:08:38;;;;;;;41.83;22.23;;;;;;;9.78;90.33;94334.16;4990521;28;20050;-60
2022/05/06 06:11:06;;;;;;;46.10;22.83;;;;;;;9.86;89.94;94345.84;4989652;28;20050;-60
2022/05/06 06:13:32;;;;;;;42.45;22.77;;;;;;;9.89;89.85;94336.84;4978148;28;20042;-59
2022/05/06 06:15:59;;;;;;;42.70;22.07;;;;;;;9.87;89.93;94330.97;4981603;28;20053;-60
2022/05/06 06:18:29;;;;;;;42.95;21.40;;;;;;;9.97;90.10;94327.38;4987797;28;20047;-64
2022/05/06 06:20:56;;;;;;;41.38;22.55;;;;;;;9.83;89.66;94327.47;4956553;28;20043;-61
2022/05/06 06:23:24;;;;;;;42.92;21.25;;;;;;;9.88;89.73;94327.03;4993739;28;20046;-62
2022/05/06 06:25:56;;;;;;;40.20;21.08;;;;;;;10.02;89.14;94331.66;4977293;28;20073;-60
2022/05/06 06:28:23;;;;;;;41.00;21.07;;;;;;;10.08;88.92;94319.06;4994194;28;20039;-60
2022/05/06 06:30:50;;;;;;;37.55;21.25;;;;;;;10.13;88.61;94326.88;4993701;28;20054;-59
2022/05/06 06:33:17;;;;;;;39.10;20.45;;;;;;;9.98;88.27;94329.72;4976365;28;20420;-62
2022/05/06 06:35:43;;;;;;;39.83;20.70;;;;;;;10.09;88.20;94329.66;4994000;28;20046;-60
2022/05/06 06:38:10;;;;;;;40.70;20.55;;;;;;;10.08;88.05;94333.59;4993603;28;20170;-60
2022/05/06 06:40:37;;;;;;;38.53;20.33;;;;;;;10.20;87.58;94326.81;4993983;28;20043;-61
2022/05/06 06:43:05;;;;;;;38.10;21.23;;;;;;;10.12;88.06;94330.78;4993469;28;20042;-60
2022/05/06 06:45:32;;;;;;;38.65;20.55;;;;;;;10.16;87.36;94334.28;4993781;28;20412;-60
2022/05/06 06:47:58;;;;;;;35.08;18.73;;;;;;;10.29;87.17;94331.88;4993248;28;20062;-63
2022/05/06 06:50:26;;;;;;;37.88;20.52;;;;;;;10.20;86.93;94335.84;4993955;28;20046;-61
2022/05/06 06:52:53;;;;;;;35.97;20.07;;;;;;;10.19;87.49;94342.50;4993373;28;20046;-57
2022/05/06 06:55:20;;;;;;;39.45;20.20;;;;;;;10.32;86.60;94342.84;4993526;28;20046;-60
2022/05/06 06:57:47;;;;;;;34.70;20.02;;;;;;;10.54;85.94;94346.22;4993719;28;20546;-62
2022/05/06 07:00:14;;;;;;;33.35;19.52;;;;;;;10.45;85.50;94356.84;4975769;28;20046;-60
2022/05/06 07:02:42;;;;;;;35.97;20.10;;;;;;;10.49;85.73;94345.84;4993392;28;20499;-62
2022/05/06 07:05:09;;;;;;;33.90;18.63;;;;;;;10.53;85.43;94346.59;4993208;28;20046;-63
2022/05/06 07:13:34;;;;;;;32.90;19.10;;;;;;;10.51;84.71;94351.72;4962767;28;20092;-62
2022/05/06 07:16:00;;;;;;;46.00;20.58;;;;;;;10.54;85.54;94357.19;4973412;28;20061;-60
2022/05/06 07:18:27;;;;;;;31.53;18.43;;;;;;;10.83;84.68;94350.66;4990789;28;20042;-61
2022/05/06 07:20:54;;;;;;;33.25;18.45;;;;;;;10.90;84.26;94364.31;4992818;28;20069;-64
2022/05/06 07:23:23;;;;;;;31.85;18.95;;;;;;;10.90;84.50;94358.81;4993098;28;20052;-63
2022/05/06 07:25:50;;;;;;;33.70;18.63;;;;;;;10.96;84.23;94366.19;4992971;28;20081;-59
2022/05/06 07:28:18;;;;;;;32.45;19.27;;;;;;;10.96;83.69;94362.69;4992688;28;20052;-59
2022/05/06 07:30:45;;;;;;;31.17;19.07;;;;;;;10.81;83.78;94369.50;4993026;28;20052;-62
2022/05/06 07:33:12;;;;;;;31.02;18.20;;;;;;;10.85;83.52;94375.75;4975118;28;20050;-59
2022/05/06 07:35:38;;;;;;;38.08;18.80;;;;;;;11.05;83.53;94373.22;4992804;28;20046;-59
2022/05/06 07:38:05;;;;;;;31.25;18.20;;;;;;;10.70;83.44;94366.84;4992300;28;20437;-61
2022/05/06 07:40:32;;;;;;;30.95;18.40;;;;;;;10.75;83.72;94375.44;4992832;28;20408;-59
2022/05/06 07:42:59;;;;;;;29.60;18.60;;;;;;;10.85;83.30;94384.00;4992246;28;20050;-64
2022/05/06 07:45:25;;;;;;;35.47;19.55;;;;;;;10.89;83.95;94382.75;4992837;28;20058;-61
2022/05/06 07:47:52;;;;;;;32.47;19.80;;;;;;;10.55;84.24;94377.94;4992738;28;20120;-60
2022/05/06 07:50:31;;;;;;;30.55;18.63;;;;;;;10.76;84.44;94370.72;4991749;28;20426;-60
2022/05/06 07:52:58;;;;;;;31.85;19.95;;;;;;;10.42;84.30;94376.06;4992155;28;20050;-59
2022/05/06 07:55:25;;;;;;;32.00;19.63;;;;;;;10.63;84.89;94378.66;4992450;28;20042;-59
2022/05/06 07:57:53;;;;;;;33.88;19.60;;;;;;;10.55;84.53;94377.94;4992420;28;20058;-62
2022/05/06 08:00:24;;;;;;;28.98;18.63;;;;;;;10.98;83.54;94372.06;4991551;28;21496;-65
2022/05/06 08:05:40;;;;;;;36.65;21.83;;;;;;;11.09;82.57;94376.69;4991411;28;20120;-63
2022/05/06 08:08:07;;;;;;;31.93;18.97;;;;;;;11.06;82.19;94374.75;4991861;28;20046;-60
2022/05/06 08:10:34;;;;;;;31.60;19.75;;;;;;;10.83;82.22;94376.16;4991910;28;20046;-60
2022/05/06 08:13:04;;;;;;;36.38;21.17;;;;;;;10.39;83.86;94378.44;4985200;28;20113;-60
2022/05/06 08:15:31;;;;;;;30.83;20.10;;;;;;;10.34;84.17;94378.88;4984835;28;20051;-61
2022/05/06 08:17:57;;;;;;;30.40;19.40;;;;;;;10.89;82.97;94387.47;4985199;28;20131;-62
2022/05/06 08:20:24;;;;;;;33.77;20.73;;;;;;;10.76;82.50;94378.94;4992187;28;20396;-59
2022/05/06 08:22:51;;;;;;;34.15;20.42;;;;;;;10.87;81.87;94379.66;4975016;28;20120;-59
2022/05/06 08:25:18;;;;;;;33.92;21.30;;;;;;;10.81;81.68;94380.50;4991177;28;20046;-59
2022/05/06 08:27:55;;;;;;;32.45;20.13;;;;;;;10.91;81.25;94385.09;4991605;28;20610;-59
2022/05/06 08:30:22;;;;;;;32.85;21.73;;;;;;;11.06;80.77;94380.25;4974575;28;20038;-60
2022/05/06 08:32:50;;;;;;;36.60;21.07;;;;;;;10.66;81.52;94382.56;4991886;28;20042;-60
2022/05/06 08:35:18;;;;;;;33.65;20.75;;;;;;;10.78;80.87;94384.81;4991085;28;20165;-59
2022/05/06 08:37:47;;;;;;;37.80;22.17;;;;;;;10.59;81.78;94381.44;4991839;28;20054;-60
2022/05/06 08:40:40;;;;;;;33.67;20.48;;;;;;;11.22;80.19;94385.97;4991184;28;20419;-65
2022/05/06 08:43:06;;;;;;;33.17;19.95;;;;;;;11.30;79.65;94390.19;4988594;28;20042;-59
2022/05/06 08:51:07;;;;;;;30.23;19.58;;;;;;;11.36;78.72;94396.81;4991298;28;20038;-59
2022/05/06 08:53:40;;;;;;;30.02;19.48;;;;;;;11.74;77.57;94396.78;4991552;28;20046;-60
2022/05/06 08:56:07;;;;;;;29.35;18.85;;;;;;;11.85;77.41;94401.38;4991170;28;20042;-60
2022/05/06 08:58:35;;;;;;;29.00;18.87;;;;;;;12.42;76.50;94399.88;4991424;28;20411;-59
2022/05/06 09:01:11;;;;;;;29.05;19.85;;;;;;;12.15;75.27;94404.16;4990988;28;20062;-59
2022/05/06 09:03:44;;;;;;;28.05;18.98;;;;;;;12.32;75.11;94399.59;4991498;28;20056;-63
2022/05/06 09:06:21;;;;;;;27.50;19.05;;;;;;;12.25;74.78;94399.69;4990809;28;20058;-59
2022/05/06 09:08:51;;;;;;;29.65;19.52;;;;;;;12.54;74.17;94413.84;4991528;28;20042;-61
2022/05/06 09:12:40;;;;;;;28.63;18.83;;;;;;;12.77;73.00;94393.03;4990018;28;20074;-62
2022/05/06 09:14:08;;;;;;;27.10;19.30;;;;;;;12.12;74.10;94407.72;4990072;28;20053;-60
2022/05/06 09:16:40;;;;;;;28.20;18.83;;;;;;;12.55;72.90;94409.09;4991146;28;20050;-65
2022/05/06 09:19:19;;;;;;;27.73;18.23;;;;;;;12.73;73.13;94404.09;4990642;28;20034;-59
2022/05/06 09:22:01;;;;;;;31.95;19.92;;;;;;;12.12;74.90;94412.47;4991106;28;20116;-59
2022/05/06 09:24:29;;;;;;;29.97;19.63;;;;;;;11.75;75.83;94414.06;4990064;28;20765;-60
2022/05/06 09:27:09;;;;;;;33.80;19.58;;;;;;;12.36;74.82;94414.09;4990256;28;20060;-59
2022/05/06 09:29:41;;;;;;;29.08;17.85;;;;;;;12.41;72.64;94421.09;4991005;28;20066;-60
2022/05/06 09:32:16;;;;;;;25.98;17.70;;;;;;;12.39;73.64;94415.22;4990238;28;20049;-59
2022/05/06 09:34:45;;;;;;;30.25;20.83;;;;;;;11.45;77.23;94415.59;4990679;28;20046;-62
2022/05/06 09:37:34;;;;;;;27.37;19.90;;;;;;;11.79;76.92;94418.34;4972962;28;20058;-59
2022/05/06 09:40:28;;;;;;;24.92;18.05;;;;;;;12.08;74.78;94414.47;4990111;28;20038;-58
2022/05/06 09:42:55;;;;;;;27.63;18.13;;;;;;;11.64;76.94;94411.44;4990138;28;20414;-59
2022/05/06 09:45:51;;;;;;;28.40;18.83;;;;;;;12.52;74.07;94420.97;4990766;28;20050;-59
2022/05/06 09:48:18;;;;;;;29.55;18.48;;;;;;;12.50;73.55;94417.84;4973216;28;20605;-61
2022/05/06 09:50:47;;;;;;;28.07;17.63;;;;;;;12.33;74.52;94425.13;4973129;28;20399;-59
2022/05/06 09:53:21;;;;;;;27.98;18.27;;;;;;;12.60;72.71;94419.66;4989543;28;20054;-58
2022/05/06 09:55:48;;;;;;;27.10;17.27;;;;;;;13.20;71.91;94417.13;4990436;28;20046;-58
2022/05/06 09:58:16;;;;;;;24.27;18.00;;;;;;;13.31;70.07;94417.72;4989944;28;20042;-59
2022/05/06 10:00:44;;;;;;;28.90;18.27;;;;;;;12.23;73.75;94426.06;4990489;28;20046;-59
2022/05/06 10:03:11;;;;;;;28.50;19.33;;;;;;;12.76;73.03;94422.56;4989823;28;20531;-60
2022/05/06 10:05:38;;;;;;;28.83;18.45;;;;;;;12.82;71.76;94416.56;4990146;28;20100;-60
2022/05/06 10:08:12;;;;;;;27.67;17.92;;;;;;;12.66;72.85;94415.22;4989606;28;20076;-59
2022/05/06 10:10:45;;;;;;;28.90;18.85;;;;;;;12.49;73.24;94427.28;4989907;28;20056;-59
2022/05/06 10:13:22;;;;;;;28.00;18.40;;;;;;;12.41;74.58;94414.81;4989588;28;20038;-60
2022/05/06 10:15:51;;;;;;;23.30;16.40;;;;;;;12.92;72.37;94421.13;4990247;28;20046;-64
2022/05/06 10:18:34;;;;;;;27.52;18.20;;;;;;;12.96;72.78;94421.84;4989683;28;20045;-60
2022/05/06 10:21:03;;;;;;;28.13;17.50;;;;;;;13.04;71.33;94417.78;4989826;28;20045;-61
2022/05/06 10:23:55;;;;;;;23.88;16.08;;;;;;;13.07;71.43;94416.16;4989981;28;20038;-60
2022/05/06 10:26:34;;;;;;;24.75;17.38;;;;;;;12.64;72.96;94422.38;4989146;28;20068;-59
2022/05/06 10:34:57;;;;;;;24.58;17.40;;;;;;;12.46;74.10;94431.66;4989098;28;22238;-59
2022/05/06 10:37:36;;;;;;;24.38;16.77;;;;;;;12.65;72.79;94429.41;4989060;28;22134;-59
2022/05/06 10:40:23;;;;;;;25.30;17.88;;;;;;;12.73;72.81;94428.09;4989627;28;20050;-60
2022/05/06 10:42:51;;;;;;;23.87;16.23;;;;;;;13.13;71.23;94420.00;4969230;28;20333;-61
2022/05/06 10:45:32;;;;;;;23.20;15.75;;;;;;;13.19;71.25;94419.09;4975508;28;20055;-59
2022/05/06 10:48:00;;;;;;;24.15;16.58;;;;;;;13.27;70.79;94416.97;4953203;28;20087;-62
2022/05/06 10:50:37;;;;;;;24.98;17.40;;;;;;;12.76;72.54;94425.31;4970624;28;20101;-60
2022/05/06 10:53:05;;;;;;;27.70;18.40;;;;;;;12.86;72.85;94423.59;4952652;28;20049;-64
2022/05/06 10:55:32;;;;;;;28.33;17.40;;;;;;;12.85;72.46;94424.00;4970305;28;20089;-61
2022/05/06 10:58:04;;;;;;;25.25;16.25;;;;;;;12.84;72.20;94422.41;4970033;28;20053;-60
2022/05/06 11:00:33;;;;;;;24.08;17.35;;;;;;;12.46;73.20;94433.63;4970503;28;20053;-61
2022/05/06 11:02:59;;;;;;;24.60;16.98;;;;;;;12.78;73.51;94428.41;4970108;28;20078;-60
2022/05/06 11:05:29;;;;;;;24.08;16.42;;;;;;;13.03;71.66;94424.47;4970277;28;20458;-60
2022/05/06 11:07:59;;;;;;;26.10;16.97;;;;;;;13.02;71.29;94422.13;4970925;28;20057;-59
2022/05/06 11:10:29;;;;;;;25.27;16.35;;;;;;;13.27;71.13;94419.75;4973484;28;20161;-59
2022/05/06 11:13:18;;;;;;;23.08;15.70;;;;;;;13.76;70.00;94417.31;4973328;28;20399;-59
2022/05/06 11:15:45;;;;;;;22.33;15.88;;;;;;;13.89;69.44;94419.44;4973666;28;20046;-59
2022/05/06 11:18:12;;;;;;;23.42;15.82;;;;;;;13.92;69.12;94422.13;4987964;28;20426;-60
2022/05/06 11:20:42;;;;;;;23.47;16.20;;;;;;;13.79;68.84;94421.19;4975890;28;20038;-61
2022/05/06 11:23:11;;;;;;;22.48;15.90;;;;;;;13.90;68.71;94415.44;4992389;28;20109;-61
2022/05/06 11:25:42;;;;;;;21.77;15.50;;;;;;;14.18;67.97;94414.09;4993038;28;20376;-60
2022/05/06 11:28:20;;;;;;;22.67;15.20;;;;;;;14.44;67.25;94415.09;4992786;28;20053;-58
2022/05/06 11:30:49;;;;;;;24.63;14.23;;;;;;;14.73;66.81;94414.50;4975435;28;20107;-58
2022/05/06 11:33:24;;;;;;;19.07;13.80;;;;;;;14.93;65.33;94406.13;4992329;28;20141;-58
2022/05/06 11:36:01;;;;;;;21.13;15.45;;;;;;;14.65;66.06;94413.09;4992894;28;20050;-57
2022/05/06 11:38:29;;;;;;;22.15;15.05;;;;;;;14.96;64.88;94408.78;4991906;28;20928;-58
2022/05/06 11:41:08;;;;;;;21.88;14.95;;;;;;;14.90;65.17;94407.00;4992145;28;20038;-57
2022/05/06 11:43:37;;;;;;;21.77;14.25;;;;;;;15.33;64.03;94408.69;4992972;28;20054;-58
2022/05/06 11:48:50;;;;;;;18.52;13.73;;;;;;;15.77;62.15;94403.59;4992788;28;20043;-60
2022/05/06 11:51:23;;;;;;;19.88;13.88;;;;;;;15.10;64.04;94401.38;4992075;28;20380;-64
2022/05/06 11:53:51;;;;;;;20.17;14.95;;;;;;;13.86;67.74;94409.22;4992523;28;20126;-62
2022/05/06 11:56:23;;;;;;;22.10;14.50;;;;;;;14.57;65.48;94401.44;4991736;28;20049;-59
2022/05/06 11:58:52;;;;;;;19.03;15.30;;;;;;;13.84;67.02;94398.63;4992532;28;20064;-60
2022/05/06 12:01:30;;;;;;;20.75;15.10;;;;;;;14.61;65.97;94404.91;4991494;28;20821;-61
2022/05/06 12:04:05;;;;;;;22.48;15.93;;;;;;;14.43;65.39;94404.47;4991878;28;20046;-59
2022/05/06 12:06:40;;;;;;;20.25;14.70;;;;;;;14.42;66.31;94402.94;4992299;28;20046;-61
2022/05/06 12:09:11;;;;;;;21.30;15.48;;;;;;;14.27;66.17;94405.25;4991675;28;20104;-61
2022/05/06 12:11:39;;;;;;;21.87;14.37;;;;;;;14.23;67.00;94393.50;4991984;28;20054;-60